createdAt,value
2023-04-05T00:04:49.441Z,37.9
2023-04-05T00:09:49.879Z,37.8
2023-04-05T00:14:50.278Z,37.8
2023-04-05T00:19:50.626Z,37.7
2023-04-05T00:24:51.028Z,37.7
2023-04-05T00:29:51.426Z,37.6
2023-04-05T00:34:51.818Z,37.6
2023-04-05T00:39:52.241Z,37.6
2023-04-05T00:44:52.633Z,37.5
2023-04-05T00:49:53.006Z,37.4
2023-04-05T00:54:53.359Z,37.4
2023-04-05T00:59:53.750Z,37.4
2023-04-05T01:04:54.139Z,37.3
2023-04-05T01:09:54.584Z,37.2
2023-04-05T01:14:54.974Z,37.2
2023-04-05T01:19:55.329Z,37.2
2023-04-05T01:24:55.704Z,37.1
2023-04-05T01:29:56.078Z,37.1
2023-04-05T01:34:56.468Z,37.1
2023-04-05T01:39:56.806Z,37
2023-04-05T01:44:57.197Z,36.9
2023-04-05T01:49:57.792Z,36.9
2023-04-05T01:54:58.168Z,36.9
2023-04-05T01:59:58.551Z,36.8
2023-04-05T02:04:58.947Z,36.8
2023-04-05T02:09:59.420Z,36.7
2023-04-05T02:15:00.702Z,36.7
2023-04-05T02:20:01.072Z,36.7
2023-04-05T02:25:01.466Z,36.6
2023-04-05T02:30:01.876Z,36.6
2023-04-05T02:35:02.531Z,36.6
2023-04-05T02:40:03.809Z,36.5
2023-04-05T02:45:04.357Z,36.4
2023-04-05T02:50:04.806Z,36.4
2023-04-05T02:55:05.573Z,36.4
2023-04-05T03:00:05.911Z,36.3
2023-04-05T03:05:06.281Z,36.3
2023-04-05T03:10:06.681Z,36.2
2023-04-05T03:15:07.057Z,36.2
2023-04-05T03:25:12.755Z,36.1
2023-04-05T03:30:13.098Z,36.1
2023-04-05T03:35:13.456Z,36.1
2023-04-05T03:40:13.824Z,36
2023-04-05T03:45:14.587Z,36
2023-04-05T03:50:15.017Z,35.9
2023-04-05T03:55:15.385Z,35.9
2023-04-05T04:00:15.810Z,35.9
2023-04-05T04:05:16.208Z,35.8
2023-04-05T04:10:16.612Z,35.8
2023-04-05T04:15:16.977Z,35.7
2023-04-05T04:20:17.346Z,35.7
2023-04-05T04:25:17.707Z,35.7
2023-04-05T04:30:18.017Z,35.6
2023-04-05T04:35:18.755Z,35.6
2023-04-05T04:40:19.176Z,35.6
2023-04-05T04:45:19.751Z,35.6
2023-04-05T04:50:20.255Z,35.5
2023-04-05T04:55:20.848Z,35.4
2023-04-05T05:00:21.447Z,35.4
2023-04-05T05:05:21.873Z,35.4
2023-04-05T05:10:22.425Z,35.4
2023-04-05T05:15:22.935Z,35.3
2023-04-05T05:20:23.223Z,35.3
2023-04-05T05:25:23.638Z,35.2
2023-04-05T05:30:23.976Z,35.2
2023-04-05T05:35:24.389Z,35.2
2023-04-05T05:40:24.872Z,35.2
2023-04-05T05:45:25.198Z,35.1
2023-04-05T05:50:25.535Z,35.1
2023-04-05T05:55:25.916Z,35.1
2023-04-05T06:00:26.223Z,35
2023-04-05T06:05:26.677Z,35
2023-04-05T06:10:27.003Z,34.9
2023-04-05T06:15:27.337Z,34.9
2023-04-05T06:20:27.793Z,34.9
2023-04-05T06:25:28.139Z,34.9
2023-04-05T06:30:28.430Z,34.8
2023-04-05T06:35:28.860Z,34.7
2023-04-05T06:40:29.153Z,34.4
2023-04-05T06:45:29.532Z,34.4
2023-04-05T06:50:29.917Z,34.3
2023-04-05T06:55:30.183Z,34.3
2023-04-05T07:00:30.453Z,34.2
2023-04-05T07:05:30.794Z,34.2
2023-04-05T07:10:31.184Z,34.2
2023-04-05T07:15:31.634Z,34.2
2023-04-05T07:20:31.933Z,34.1
2023-04-05T07:25:32.436Z,34.1
2023-04-05T07:30:32.745Z,34.1
2023-04-05T07:35:33.373Z,34.1
2023-04-05T07:40:34.106Z,34
2023-04-05T07:45:35.279Z,34
2023-04-05T07:50:35.647Z,33.9
2023-04-05T07:55:35.989Z,33.7
2023-04-05T08:00:36.362Z,33.3
2023-04-05T08:05:36.662Z,33.2
2023-04-05T08:10:36.951Z,33.2
2023-04-05T08:15:37.217Z,33.1
2023-04-05T08:20:40.067Z,33.1
2023-04-05T08:25:42.526Z,33.1
2023-04-05T08:30:43.370Z,33.1
2023-04-05T08:35:44.018Z,33.1
2023-04-05T08:40:44.359Z,33
2023-04-05T08:45:44.714Z,33
2023-04-05T08:50:45.128Z,32.9
2023-04-05T08:55:45.794Z,32.9
2023-04-05T09:00:46.337Z,32.9
2023-04-05T09:05:46.757Z,32.9
2023-04-05T09:10:47.119Z,32.9
2023-04-05T09:15:47.439Z,32.9
2023-04-05T09:20:47.804Z,32.8
2023-04-05T09:25:48.070Z,32.8
2023-04-05T09:30:48.354Z,32.7
2023-04-05T09:35:48.705Z,32.7
2023-04-05T09:40:49.091Z,32.7
2023-04-05T09:45:49.448Z,32.7
2023-04-05T09:50:50.161Z,32.7
2023-04-05T09:55:50.505Z,32.6
2023-04-05T10:00:51.312Z,32.6
2023-04-05T10:05:51.588Z,32.6
2023-04-05T10:10:51.869Z,32.6
2023-04-05T10:15:52.211Z,32.6
2023-04-05T10:20:53.465Z,32.5
2023-04-05T10:25:53.887Z,32.4
2023-04-05T10:30:54.217Z,32.4
2023-04-05T10:35:54.618Z,32.4
2023-04-05T10:40:54.945Z,32.4
2023-04-05T10:45:55.248Z,32.4
2023-04-05T10:50:55.541Z,32.3
2023-04-05T10:55:55.792Z,32.3
2023-04-05T11:00:56.097Z,32.2
2023-04-05T11:05:56.365Z,32.2
2023-04-05T11:10:57.507Z,32.2
2023-04-05T11:15:57.745Z,32.2
2023-04-05T11:20:57.999Z,32.1
2023-04-05T11:25:58.257Z,32.1
2023-04-05T11:30:59.443Z,32.1
2023-04-05T11:36:00.779Z,32.1
2023-04-05T11:41:01.011Z,32.1
2023-04-05T11:46:01.354Z,32.1
2023-04-05T11:51:01.711Z,32
2023-04-05T11:56:01.975Z,32
2023-04-05T12:01:02.257Z,32
2023-04-05T12:06:02.515Z,31.9
2023-04-05T12:11:04.406Z,31.9
2023-04-05T12:16:04.722Z,31.9
2023-04-05T12:26:12.521Z,31.9
2023-04-05T12:31:12.726Z,31.9
2023-04-05T12:36:12.955Z,31.8
2023-04-05T12:41:13.317Z,31.8
2023-04-05T12:46:13.571Z,31.8
2023-04-05T12:51:13.806Z,31.8
2023-04-05T12:56:16.969Z,31.8
2023-04-05T13:01:17.271Z,31.8
2023-04-05T13:06:17.529Z,31.7
2023-04-05T13:11:19.362Z,31.7
2023-04-05T13:16:21.309Z,31.6
2023-04-05T13:21:23.206Z,31.6
2023-04-05T13:26:23.505Z,31.6
2023-04-05T13:31:23.823Z,31.5
2023-04-05T13:36:24.132Z,31.3
2023-04-05T13:41:26.194Z,31.2
2023-04-05T13:46:28.046Z,31.2
2023-04-05T13:51:28.271Z,31.2
2023-04-05T13:56:30.123Z,31.2
2023-04-05T14:01:31.993Z,31.1
2023-04-05T14:06:32.319Z,33.9
2023-04-05T14:11:32.751Z,36.4
2023-04-05T14:16:33.190Z,39.2
2023-04-05T14:21:33.816Z,41.9
2023-04-05T14:26:34.403Z,42.6
2023-04-05T14:31:35.018Z,42.7
2023-04-05T14:36:35.572Z,42.7
2023-04-05T14:41:36.185Z,42.7
2023-04-05T14:46:36.787Z,42.6
2023-04-05T14:51:37.373Z,42.6
2023-04-05T14:56:37.912Z,42.6
2023-04-05T15:01:38.588Z,42.6
2023-04-05T15:06:39.389Z,42.5
2023-04-05T15:11:39.913Z,42.5
2023-04-05T15:16:41.454Z,42.6
2023-04-05T15:21:42.195Z,43.5
2023-04-05T15:26:42.927Z,44.1
2023-04-05T15:31:43.612Z,45.1
2023-04-05T15:36:44.494Z,45.1
2023-04-05T15:41:45.138Z,45.7
2023-04-05T15:46:46.046Z,45.6
2023-04-05T15:51:46.921Z,45.2
2023-04-05T15:56:47.689Z,45.3
2023-04-05T16:01:48.364Z,45.5
2023-04-05T16:06:49.065Z,45.5
2023-04-05T16:11:49.722Z,45.5
2023-04-05T16:16:54.025Z,45.5
2023-04-05T16:22:04.927Z,45.4
2023-04-05T16:27:06.907Z,44.9
2023-04-05T16:32:07.736Z,42.2
2023-04-05T16:37:08.245Z,40.1
2023-04-05T16:42:08.748Z,40.7
2023-04-05T16:47:09.290Z,43.3
2023-04-05T16:52:09.922Z,44.8
2023-04-05T16:57:10.591Z,45
2023-04-05T17:02:11.416Z,45
2023-04-05T17:07:12.166Z,45
2023-04-05T17:12:12.779Z,44.9
2023-04-05T17:17:13.444Z,44.9
2023-04-05T17:22:14.085Z,44.9
2023-04-05T17:27:14.891Z,44.9
2023-04-05T17:32:15.613Z,45.5
2023-04-05T17:37:16.832Z,44.6
2023-04-05T17:42:17.466Z,43.4
2023-04-05T17:47:18.051Z,43.2
2023-04-05T17:52:19.124Z,43.1
2023-04-05T17:57:19.676Z,42.9
2023-04-05T18:02:20.310Z,42.9
2023-04-05T18:07:20.971Z,42.7
2023-04-05T18:12:21.548Z,42.4
2023-04-05T18:17:22.326Z,42.3
2023-04-05T18:22:23.097Z,42.2
2023-04-05T18:27:23.999Z,42
2023-04-05T18:32:24.711Z,41.9
2023-04-05T18:37:25.459Z,41.7
2023-04-05T18:42:25.968Z,41.6
2023-04-05T18:47:26.696Z,41.4
2023-04-05T18:52:27.275Z,41.2
2023-04-05T18:57:28.663Z,41.1
2023-04-05T19:02:29.213Z,41
2023-04-05T19:07:29.894Z,40.9
2023-04-05T19:12:30.456Z,40.7
2023-04-05T19:17:30.970Z,40.6
2023-04-05T19:22:31.701Z,40.5
2023-04-05T19:27:32.235Z,40.4
2023-04-05T19:32:32.839Z,40.2
2023-04-05T19:37:33.633Z,40.1
2023-04-05T19:42:35.055Z,40
2023-04-05T19:47:35.638Z,39.9
2023-04-05T19:52:36.125Z,39.7
2023-04-05T19:57:36.597Z,39.4
2023-04-05T20:02:37.259Z,38.8
2023-04-05T20:07:37.890Z,38.6
2023-04-05T20:12:38.361Z,38.5
2023-04-05T20:17:39.429Z,38.4
2023-04-05T20:22:39.883Z,38.2
2023-04-05T20:27:40.337Z,38.1
2023-04-05T20:32:40.892Z,38
2023-04-05T20:37:41.426Z,37.9
2023-04-05T20:42:42.018Z,37.8
2023-04-05T20:47:42.591Z,37.7
2023-04-05T20:52:44.071Z,37.6
2023-04-05T20:57:44.444Z,37.6
2023-04-05T21:02:44.874Z,37.4
2023-04-05T21:07:45.401Z,37.4
2023-04-05T21:12:45.837Z,37.3
2023-04-05T21:17:46.249Z,37.2
2023-04-05T21:22:46.833Z,37.2
2023-04-05T21:27:47.185Z,37.1
2023-04-05T21:32:47.668Z,37
2023-04-05T21:37:48.133Z,36.9
2023-04-05T21:42:48.561Z,36.9
2023-04-05T21:47:49.022Z,36.8
2023-04-05T21:52:49.542Z,36.7
2023-04-05T21:57:49.943Z,36.7
2023-04-05T22:02:50.388Z,36.6
2023-04-05T22:07:50.804Z,36.6
2023-04-05T22:12:51.386Z,36.5
2023-04-05T22:17:51.863Z,36.4
2023-04-05T22:22:52.338Z,36.4
2023-04-05T22:27:52.725Z,36.3
2023-04-05T22:32:53.134Z,36.2
2023-04-05T22:37:53.690Z,36.2
2023-04-05T22:42:54.133Z,36.2
2023-04-05T22:47:54.524Z,36.1
2023-04-05T22:52:55.013Z,36.1
2023-04-05T22:57:55.369Z,36
2023-04-05T23:02:55.780Z,35.9
2023-04-05T23:07:56.200Z,35.9
2023-04-05T23:12:56.628Z,35.8
2023-04-05T23:17:57.083Z,35.8
2023-04-05T23:22:57.575Z,35.7
2023-04-05T23:27:57.958Z,35.7
2023-04-05T23:32:58.391Z,35.6
2023-04-05T23:37:58.854Z,35.6
2023-04-05T23:42:59.239Z,35.5
2023-04-05T23:47:59.662Z,35.5
2023-04-05T23:53:00.083Z,35.4
2023-04-05T23:58:00.532Z,35.4
